sensor_id;sensor_type;location;lat;lon;timestamp;P1;durP1;ratioP1;P2;durP2;ratioP2
71303;SDS011;59091;47.446;19.148;2024-01-27T00:00:16;7.18;;;4.50;;
71303;SDS011;59091;47.446;19.148;2024-01-27T00:02:43;7.57;;;4.45;;
71303;SDS011;59091;47.446;19.148;2024-01-27T00:05:08;7.60;;;4.10;;
71303;SDS011;59091;47.446;19.148;2024-01-27T00:07:34;6.93;;;4.47;;
71303;SDS011;59091;47.446;19.148;2024-01-27T00:10:00;5.43;;;3.75;;
71303;SDS011;59091;47.446;19.148;2024-01-27T00:12:26;6.78;;;3.78;;
71303;SDS011;59091;47.446;19.148;2024-01-27T00:14:52;8.73;;;4.05;;
71303;SDS011;59091;47.446;19.148;2024-01-27T00:17:17;9.10;;;3.85;;
71303;SDS011;59091;47.446;19.148;2024-01-27T00:19:44;9.00;;;3.40;;
71303;SDS011;59091;47.446;19.148;2024-01-27T00:22:10;4.57;;;3.00;;
71303;SDS011;59091;47.446;19.148;2024-01-27T00:24:35;7.72;;;3.10;;
71303;SDS011;59091;47.446;19.148;2024-01-27T00:27:00;5.07;;;3.17;;
71303;SDS011;59091;47.446;19.148;2024-01-27T00:29:26;5.35;;;2.50;;
71303;SDS011;59091;47.446;19.148;2024-01-27T00:31:51;7.43;;;2.42;;
71303;SDS011;59091;47.446;19.148;2024-01-27T00:34:19;7.18;;;2.70;;
71303;SDS011;59091;47.446;19.148;2024-01-27T00:36:45;2.58;;;2.17;;
71303;SDS011;59091;47.446;19.148;2024-01-27T00:39:17;3.75;;;2.28;;
71303;SDS011;59091;47.446;19.148;2024-01-27T00:41:42;4.88;;;2.15;;
71303;SDS011;59091;47.446;19.148;2024-01-27T00:44:08;3.13;;;2.20;;
71303;SDS011;59091;47.446;19.148;2024-01-27T00:46:34;2.83;;;2.30;;
71303;SDS011;59091;47.446;19.148;2024-01-27T00:49:00;3.67;;;2.13;;
71303;SDS011;59091;47.446;19.148;2024-01-27T00:51:25;3.97;;;2.10;;
71303;SDS011;59091;47.446;19.148;2024-01-27T00:53:50;4.88;;;1.95;;
71303;SDS011;59091;47.446;19.148;2024-01-27T00:56:16;2.28;;;1.80;;
71303;SDS011;59091;47.446;19.148;2024-01-27T00:58:41;1.58;;;1.38;;
71303;SDS011;59091;47.446;19.148;2024-01-27T11:40:18;6.40;;;1.42;;
71303;SDS011;59091;47.446;19.148;2024-01-27T11:42:43;5.93;;;1.40;;
71303;SDS011;59091;47.446;19.148;2024-01-27T11:45:18;9.20;;;1.23;;
71303;SDS011;59091;47.446;19.148;2024-01-27T11:47:43;6.40;;;1.80;;
71303;SDS011;59091;47.446;19.148;2024-01-27T11:50:09;5.25;;;1.60;;
71303;SDS011;59091;47.446;19.148;2024-01-27T11:52:34;7.90;;;1.35;;
71303;SDS011;59091;47.446;19.148;2024-01-27T11:55:00;11.35;;;2.58;;
71303;SDS011;59091;47.446;19.148;2024-01-27T11:57:26;5.15;;;1.30;;
71303;SDS011;59091;47.446;19.148;2024-01-27T11:59:52;4.07;;;1.38;;
71303;SDS011;59091;47.446;19.148;2024-01-27T12:02:18;4.57;;;1.23;;
71303;SDS011;59091;47.446;19.148;2024-01-27T12:04:44;5.45;;;1.67;;
71303;SDS011;59091;47.446;19.148;2024-01-27T12:07:10;4.32;;;1.42;;
71303;SDS011;59091;47.446;19.148;2024-01-27T12:09:38;6.65;;;1.70;;
71303;SDS011;59091;47.446;19.148;2024-01-27T12:12:04;8.25;;;1.50;;
71303;SDS011;59091;47.446;19.148;2024-01-27T12:14:49;5.60;;;1.98;;
71303;SDS011;59091;47.446;19.148;2024-01-27T12:17:16;2.83;;;1.42;;
71303;SDS011;59091;47.446;19.148;2024-01-27T12:19:46;4.38;;;1.77;;
71303;SDS011;59091;47.446;19.148;2024-01-27T12:22:26;3.90;;;1.40;;
71303;SDS011;59091;47.446;19.148;2024-01-27T12:24:56;4.05;;;1.08;;
71303;SDS011;59091;47.446;19.148;2024-01-27T12:27:33;1.65;;;1.20;;
71303;SDS011;59091;47.446;19.148;2024-01-27T12:30:00;5.95;;;1.40;;
71303;SDS011;59091;47.446;19.148;2024-01-27T12:32:26;4.15;;;1.40;;
71303;SDS011;59091;47.446;19.148;2024-01-27T12:34:52;7.03;;;1.75;;
71303;SDS011;59091;47.446;19.148;2024-01-27T12:37:17;8.30;;;1.60;;
71303;SDS011;59091;47.446;19.148;2024-01-27T12:39:43;1.70;;;1.20;;
71303;SDS011;59091;47.446;19.148;2024-01-27T12:42:09;8.98;;;1.90;;
71303;SDS011;59091;47.446;19.148;2024-01-27T12:44:35;3.20;;;1.27;;
71303;SDS011;59091;47.446;19.148;2024-01-27T12:47:00;5.97;;;1.40;;
71303;SDS011;59091;47.446;19.148;2024-01-27T12:49:26;3.22;;;1.60;;
71303;SDS011;59091;47.446;19.148;2024-01-27T12:51:52;5.78;;;1.73;;
71303;SDS011;59091;47.446;19.148;2024-01-27T12:54:17;3.70;;;1.23;;
71303;SDS011;59091;47.446;19.148;2024-01-27T12:56:43;3.83;;;1.52;;
71303;SDS011;59091;47.446;19.148;2024-01-27T12:59:08;5.93;;;2.55;;
71303;SDS011;59091;47.446;19.148;2024-01-27T13:01:34;6.18;;;1.80;;
71303;SDS011;59091;47.446;19.148;2024-01-27T13:03:59;7.00;;;2.90;;
71303;SDS011;59091;47.446;19.148;2024-01-27T13:06:25;3.80;;;2.05;;
71303;SDS011;59091;47.446;19.148;2024-01-27T13:08:51;6.65;;;1.85;;
71303;SDS011;59091;47.446;19.148;2024-01-27T13:11:17;8.13;;;2.95;;
71303;SDS011;59091;47.446;19.148;2024-01-27T13:13:42;6.57;;;2.30;;
71303;SDS011;59091;47.446;19.148;2024-01-27T13:16:08;6.95;;;2.42;;
71303;SDS011;59091;47.446;19.148;2024-01-27T13:18:33;6.00;;;2.47;;
71303;SDS011;59091;47.446;19.148;2024-01-27T13:20:59;5.60;;;1.40;;
71303;SDS011;59091;47.446;19.148;2024-01-27T13:23:24;7.60;;;1.77;;
71303;SDS011;59091;47.446;19.148;2024-01-27T13:25:50;3.15;;;1.60;;
71303;SDS011;59091;47.446;19.148;2024-01-27T13:28:15;3.13;;;1.60;;
71303;SDS011;59091;47.446;19.148;2024-01-27T13:30:41;6.78;;;1.40;;
71303;SDS011;59091;47.446;19.148;2024-01-27T13:33:07;5.32;;;1.92;;
71303;SDS011;59091;47.446;19.148;2024-01-27T13:35:32;7.82;;;1.52;;
71303;SDS011;59091;47.446;19.148;2024-01-27T13:37:58;3.85;;;1.40;;
71303;SDS011;59091;47.446;19.148;2024-01-27T13:40:23;3.85;;;1.65;;
71303;SDS011;59091;47.446;19.148;2024-01-27T13:42:48;4.93;;;1.48;;
71303;SDS011;59091;47.446;19.148;2024-01-27T13:45:14;8.98;;;1.73;;
71303;SDS011;59091;47.446;19.148;2024-01-27T13:47:39;5.22;;;1.85;;
71303;SDS011;59091;47.446;19.148;2024-01-27T13:50:05;6.18;;;1.55;;
71303;SDS011;59091;47.446;19.148;2024-01-27T13:52:31;2.40;;;1.42;;
71303;SDS011;59091;47.446;19.148;2024-01-27T13:54:57;3.33;;;1.70;;
71303;SDS011;59091;47.446;19.148;2024-01-27T13:57:22;7.88;;;1.77;;
71303;SDS011;59091;47.446;19.148;2024-01-27T13:59:48;2.75;;;1.45;;
71303;SDS011;59091;47.446;19.148;2024-01-27T14:02:13;4.07;;;1.30;;
71303;SDS011;59091;47.446;19.148;2024-01-27T14:04:39;6.18;;;1.85;;
71303;SDS011;59091;47.446;19.148;2024-01-27T14:07:04;3.60;;;1.33;;
71303;SDS011;59091;47.446;19.148;2024-01-27T14:09:33;4.78;;;1.63;;
71303;SDS011;59091;47.446;19.148;2024-01-27T14:11:58;6.65;;;2.00;;
71303;SDS011;59091;47.446;19.148;2024-01-27T14:14:24;4.15;;;1.73;;
71303;SDS011;59091;47.446;19.148;2024-01-27T14:16:49;2.88;;;1.27;;
71303;SDS011;59091;47.446;19.148;2024-01-27T14:19:14;3.78;;;1.73;;
71303;SDS011;59091;47.446;19.148;2024-01-27T14:21:40;3.70;;;1.38;;
71303;SDS011;59091;47.446;19.148;2024-01-27T14:24:06;3.55;;;1.55;;
71303;SDS011;59091;47.446;19.148;2024-01-27T14:26:33;4.00;;;1.50;;
71303;SDS011;59091;47.446;19.148;2024-01-27T14:28:58;5.05;;;1.70;;
71303;SDS011;59091;47.446;19.148;2024-01-27T14:31:24;6.22;;;1.83;;
71303;SDS011;59091;47.446;19.148;2024-01-27T14:33:49;7.75;;;2.50;;
71303;SDS011;59091;47.446;19.148;2024-01-27T14:36:15;9.23;;;2.55;;
71303;SDS011;59091;47.446;19.148;2024-01-27T14:38:41;10.73;;;3.40;;
71303;SDS011;59091;47.446;19.148;2024-01-27T14:41:07;9.13;;;2.00;;
71303;SDS011;59091;47.446;19.148;2024-01-27T14:43:33;6.20;;;2.28;;
71303;SDS011;59091;47.446;19.148;2024-01-27T14:45:58;3.10;;;1.55;;
71303;SDS011;59091;47.446;19.148;2024-01-27T14:48:24;8.15;;;2.22;;
71303;SDS011;59091;47.446;19.148;2024-01-27T14:50:50;6.07;;;2.10;;
71303;SDS011;59091;47.446;19.148;2024-01-27T14:53:23;6.05;;;1.60;;
71303;SDS011;59091;47.446;19.148;2024-01-27T14:55:52;5.68;;;1.48;;
71303;SDS011;59091;47.446;19.148;2024-01-27T14:58:18;3.65;;;1.48;;
71303;SDS011;59091;47.446;19.148;2024-01-27T15:00:44;3.55;;;1.30;;
71303;SDS011;59091;47.446;19.148;2024-01-27T15:03:09;5.30;;;1.55;;
71303;SDS011;59091;47.446;19.148;2024-01-27T15:05:35;5.70;;;1.80;;
71303;SDS011;59091;47.446;19.148;2024-01-27T15:08:05;3.80;;;1.40;;
71303;SDS011;59091;47.446;19.148;2024-01-27T15:10:31;6.32;;;1.65;;
71303;SDS011;59091;47.446;19.148;2024-01-27T15:12:57;6.35;;;1.60;;
71303;SDS011;59091;47.446;19.148;2024-01-27T15:15:23;3.38;;;1.80;;
71303;SDS011;59091;47.446;19.148;2024-01-27T15:17:48;6.43;;;1.98;;
71303;SDS011;59091;47.446;19.148;2024-01-27T15:20:14;4.20;;;1.60;;
71303;SDS011;59091;47.446;19.148;2024-01-27T15:22:40;9.88;;;1.83;;
71303;SDS011;59091;47.446;19.148;2024-01-27T15:25:06;6.68;;;1.77;;
71303;SDS011;59091;47.446;19.148;2024-01-27T15:27:32;4.63;;;1.80;;
71303;SDS011;59091;47.446;19.148;2024-01-27T15:29:57;5.47;;;1.60;;
71303;SDS011;59091;47.446;19.148;2024-01-27T15:32:22;4.03;;;1.75;;
71303;SDS011;59091;47.446;19.148;2024-01-27T15:34:49;9.15;;;2.03;;
71303;SDS011;59091;47.446;19.148;2024-01-27T15:37:15;5.95;;;2.10;;
71303;SDS011;59091;47.446;19.148;2024-01-27T15:39:41;6.90;;;2.45;;
71303;SDS011;59091;47.446;19.148;2024-01-27T15:42:08;8.63;;;2.10;;
71303;SDS011;59091;47.446;19.148;2024-01-27T15:44:33;9.70;;;2.00;;
71303;SDS011;59091;47.446;19.148;2024-01-27T15:46:59;6.97;;;1.90;;
71303;SDS011;59091;47.446;19.148;2024-01-27T15:49:25;7.53;;;1.77;;
71303;SDS011;59091;47.446;19.148;2024-01-27T15:51:51;5.07;;;1.40;;
71303;SDS011;59091;47.446;19.148;2024-01-27T15:54:16;4.82;;;1.40;;
71303;SDS011;59091;47.446;19.148;2024-01-27T15:56:43;6.22;;;1.58;;
71303;SDS011;59091;47.446;19.148;2024-01-27T15:59:09;5.38;;;2.10;;
71303;SDS011;59091;47.446;19.148;2024-01-27T16:01:35;9.15;;;2.15;;
71303;SDS011;59091;47.446;19.148;2024-01-27T16:04:00;6.45;;;1.45;;
71303;SDS011;59091;47.446;19.148;2024-01-27T16:06:25;6.15;;;2.38;;
71303;SDS011;59091;47.446;19.148;2024-01-27T16:08:51;6.88;;;2.00;;
71303;SDS011;59091;47.446;19.148;2024-01-27T16:11:16;10.25;;;1.75;;
71303;SDS011;59091;47.446;19.148;2024-01-27T16:13:42;5.25;;;2.00;;
71303;SDS011;59091;47.446;19.148;2024-01-27T16:16:07;4.68;;;2.20;;
71303;SDS011;59091;47.446;19.148;2024-01-27T16:18:33;8.20;;;2.25;;
71303;SDS011;59091;47.446;19.148;2024-01-27T16:20:59;5.55;;;2.00;;
71303;SDS011;59091;47.446;19.148;2024-01-27T16:23:24;4.93;;;1.80;;
71303;SDS011;59091;47.446;19.148;2024-01-27T16:25:49;5.40;;;2.00;;
71303;SDS011;59091;47.446;19.148;2024-01-27T16:28:15;6.43;;;1.73;;
71303;SDS011;59091;47.446;19.148;2024-01-27T16:30:40;7.22;;;2.10;;
71303;SDS011;59091;47.446;19.148;2024-01-27T16:33:06;6.55;;;2.20;;
71303;SDS011;59091;47.446;19.148;2024-01-27T16:35:32;4.28;;;1.88;;
71303;SDS011;59091;47.446;19.148;2024-01-27T16:37:57;8.68;;;2.47;;
71303;SDS011;59091;47.446;19.148;2024-01-27T16:40:22;9.07;;;2.80;;
71303;SDS011;59091;47.446;19.148;2024-01-27T16:42:48;6.80;;;3.03;;
71303;SDS011;59091;47.446;19.148;2024-01-27T16:45:13;5.03;;;2.33;;
71303;SDS011;59091;47.446;19.148;2024-01-27T16:47:39;9.25;;;3.65;;
71303;SDS011;59091;47.446;19.148;2024-01-27T16:50:04;13.88;;;5.07;;
71303;SDS011;59091;47.446;19.148;2024-01-27T16:52:30;5.10;;;2.53;;
71303;SDS011;59091;47.446;19.148;2024-01-27T16:54:55;9.23;;;2.20;;
71303;SDS011;59091;47.446;19.148;2024-01-27T16:57:21;8.85;;;2.40;;
71303;SDS011;59091;47.446;19.148;2024-01-27T16:59:46;6.20;;;2.03;;
71303;SDS011;59091;47.446;19.148;2024-01-27T17:02:12;6.32;;;1.90;;
71303;SDS011;59091;47.446;19.148;2024-01-27T17:04:37;12.18;;;2.75;;
71303;SDS011;59091;47.446;19.148;2024-01-27T17:07:04;10.52;;;2.58;;
71303;SDS011;59091;47.446;19.148;2024-01-27T17:09:33;7.22;;;2.75;;
71303;SDS011;59091;47.446;19.148;2024-01-27T17:11:59;7.32;;;2.45;;
71303;SDS011;59091;47.446;19.148;2024-01-27T17:14:26;10.25;;;1.98;;
71303;SDS011;59091;47.446;19.148;2024-01-27T17:16:51;12.05;;;3.45;;
71303;SDS011;59091;47.446;19.148;2024-01-27T17:19:19;7.82;;;2.35;;
71303;SDS011;59091;47.446;19.148;2024-01-27T17:21:44;6.53;;;1.90;;
71303;SDS011;59091;47.446;19.148;2024-01-27T17:24:10;6.90;;;2.55;;
71303;SDS011;59091;47.446;19.148;2024-01-27T17:26:35;8.35;;;2.80;;
71303;SDS011;59091;47.446;19.148;2024-01-27T17:29:01;8.30;;;3.20;;
71303;SDS011;59091;47.446;19.148;2024-01-27T17:31:26;7.68;;;2.63;;
71303;SDS011;59091;47.446;19.148;2024-01-27T17:33:51;11.35;;;2.90;;
71303;SDS011;59091;47.446;19.148;2024-01-27T17:36:17;8.15;;;2.85;;
71303;SDS011;59091;47.446;19.148;2024-01-27T17:38:44;9.73;;;2.97;;
71303;SDS011;59091;47.446;19.148;2024-01-27T17:41:10;11.52;;;3.08;;
71303;SDS011;59091;47.446;19.148;2024-01-27T17:43:35;11.95;;;3.97;;
71303;SDS011;59091;47.446;19.148;2024-01-27T17:46:00;11.65;;;4.80;;
71303;SDS011;59091;47.446;19.148;2024-01-27T17:48:26;11.35;;;4.40;;
71303;SDS011;59091;47.446;19.148;2024-01-27T17:50:52;9.40;;;3.08;;
71303;SDS011;59091;47.446;19.148;2024-01-27T17:53:18;14.35;;;4.05;;
71303;SDS011;59091;47.446;19.148;2024-01-27T17:55:43;8.38;;;2.80;;
71303;SDS011;59091;47.446;19.148;2024-01-27T17:58:12;7.93;;;2.47;;
71303;SDS011;59091;47.446;19.148;2024-01-27T18:00:38;6.97;;;2.30;;
71303;SDS011;59091;47.446;19.148;2024-01-27T18:03:04;6.10;;;2.38;;
71303;SDS011;59091;47.446;19.148;2024-01-27T18:05:29;8.98;;;2.53;;
71303;SDS011;59091;47.446;19.148;2024-01-27T18:07:55;12.02;;;2.28;;
71303;SDS011;59091;47.446;19.148;2024-01-27T18:10:20;4.63;;;2.22;;
71303;SDS011;59091;47.446;19.148;2024-01-27T18:12:46;6.53;;;2.50;;
71303;SDS011;59091;47.446;19.148;2024-01-27T18:15:14;6.68;;;2.13;;
71303;SDS011;59091;47.446;19.148;2024-01-27T18:17:40;5.93;;;2.22;;
71303;SDS011;59091;47.446;19.148;2024-01-27T18:20:05;7.38;;;2.38;;
71303;SDS011;59091;47.446;19.148;2024-01-27T18:22:31;8.73;;;2.53;;
71303;SDS011;59091;47.446;19.148;2024-01-27T18:24:57;4.50;;;2.28;;
71303;SDS011;59091;47.446;19.148;2024-01-27T18:27:22;4.72;;;2.40;;
71303;SDS011;59091;47.446;19.148;2024-01-27T18:29:48;7.47;;;2.65;;
71303;SDS011;59091;47.446;19.148;2024-01-27T18:32:14;4.60;;;2.03;;
71303;SDS011;59091;47.446;19.148;2024-01-27T18:34:39;10.07;;;2.35;;
71303;SDS011;59091;47.446;19.148;2024-01-27T18:37:06;8.43;;;2.15;;
71303;SDS011;59091;47.446;19.148;2024-01-27T18:39:31;6.43;;;2.35;;
71303;SDS011;59091;47.446;19.148;2024-01-27T18:41:56;8.00;;;2.88;;
71303;SDS011;59091;47.446;19.148;2024-01-27T18:44:22;4.97;;;2.30;;
71303;SDS011;59091;47.446;19.148;2024-01-27T18:46:47;9.27;;;3.05;;
71303;SDS011;59091;47.446;19.148;2024-01-27T18:49:13;9.38;;;2.70;;
71303;SDS011;59091;47.446;19.148;2024-01-27T18:51:42;5.70;;;2.63;;
71303;SDS011;59091;47.446;19.148;2024-01-27T18:54:09;6.63;;;3.10;;
71303;SDS011;59091;47.446;19.148;2024-01-27T18:56:36;6.70;;;3.60;;
71303;SDS011;59091;47.446;19.148;2024-01-27T18:59:02;5.88;;;2.20;;
71303;SDS011;59091;47.446;19.148;2024-01-27T19:01:27;8.98;;;2.67;;
71303;SDS011;59091;47.446;19.148;2024-01-27T19:03:52;8.27;;;2.75;;
71303;SDS011;59091;47.446;19.148;2024-01-27T19:06:18;8.70;;;2.88;;
71303;SDS011;59091;47.446;19.148;2024-01-27T19:08:43;8.18;;;2.83;;
71303;SDS011;59091;47.446;19.148;2024-01-27T19:11:09;6.72;;;1.75;;
71303;SDS011;59091;47.446;19.148;2024-01-27T19:13:35;3.03;;;1.85;;
71303;SDS011;59091;47.446;19.148;2024-01-27T19:16:00;10.80;;;2.85;;
71303;SDS011;59091;47.446;19.148;2024-01-27T19:18:25;6.72;;;2.15;;
71303;SDS011;59091;47.446;19.148;2024-01-27T19:20:51;11.55;;;2.85;;
71303;SDS011;59091;47.446;19.148;2024-01-27T19:23:17;10.88;;;2.53;;
71303;SDS011;59091;47.446;19.148;2024-01-27T19:25:42;10.10;;;2.67;;
71303;SDS011;59091;47.446;19.148;2024-01-27T19:28:09;8.48;;;2.72;;
71303;SDS011;59091;47.446;19.148;2024-01-27T19:30:34;9.52;;;2.78;;
71303;SDS011;59091;47.446;19.148;2024-01-27T19:33:00;8.10;;;3.10;;
71303;SDS011;59091;47.446;19.148;2024-01-27T19:35:25;8.75;;;2.65;;
71303;SDS011;59091;47.446;19.148;2024-01-27T19:37:51;7.38;;;2.08;;
71303;SDS011;59091;47.446;19.148;2024-01-27T19:40:17;7.55;;;2.50;;
71303;SDS011;59091;47.446;19.148;2024-01-27T19:42:42;8.85;;;2.78;;
71303;SDS011;59091;47.446;19.148;2024-01-27T19:45:11;9.95;;;2.65;;
71303;SDS011;59091;47.446;19.148;2024-01-27T19:47:37;7.82;;;2.55;;
71303;SDS011;59091;47.446;19.148;2024-01-27T19:50:03;5.43;;;2.33;;
71303;SDS011;59091;47.446;19.148;2024-01-27T19:52:29;8.32;;;2.55;;
71303;SDS011;59091;47.446;19.148;2024-01-27T19:54:55;7.95;;;2.30;;
71303;SDS011;59091;47.446;19.148;2024-01-27T19:57:21;10.15;;;2.67;;
71303;SDS011;59091;47.446;19.148;2024-01-27T19:59:46;8.77;;;2.60;;
71303;SDS011;59091;47.446;19.148;2024-01-27T20:02:12;11.07;;;3.00;;
71303;SDS011;59091;47.446;19.148;2024-01-27T20:04:38;7.40;;;2.45;;
71303;SDS011;59091;47.446;19.148;2024-01-27T20:07:07;13.13;;;2.80;;
71303;SDS011;59091;47.446;19.148;2024-01-27T20:09:32;11.35;;;4.82;;
71303;SDS011;59091;47.446;19.148;2024-01-27T20:11:58;16.40;;;5.25;;
71303;SDS011;59091;47.446;19.148;2024-01-27T20:14:23;10.68;;;4.35;;
71303;SDS011;59091;47.446;19.148;2024-01-27T20:16:49;16.60;;;4.88;;
71303;SDS011;59091;47.446;19.148;2024-01-27T20:19:17;6.03;;;2.58;;
71303;SDS011;59091;47.446;19.148;2024-01-27T20:21:44;13.25;;;4.25;;
71303;SDS011;59091;47.446;19.148;2024-01-27T20:24:09;12.43;;;4.30;;
71303;SDS011;59091;47.446;19.148;2024-01-27T20:26:37;8.48;;;3.08;;
71303;SDS011;59091;47.446;19.148;2024-01-27T20:29:02;13.57;;;5.13;;
71303;SDS011;59091;47.446;19.148;2024-01-27T20:31:28;14.38;;;4.47;;
71303;SDS011;59091;47.446;19.148;2024-01-27T20:33:53;12.40;;;3.90;;
71303;SDS011;59091;47.446;19.148;2024-01-27T20:36:19;8.07;;;2.45;;
71303;SDS011;59091;47.446;19.148;2024-01-27T20:38:44;10.88;;;2.95;;
71303;SDS011;59091;47.446;19.148;2024-01-27T20:41:10;7.90;;;3.33;;
71303;SDS011;59091;47.446;19.148;2024-01-27T20:43:36;13.48;;;4.40;;
71303;SDS011;59091;47.446;19.148;2024-01-27T20:46:02;10.55;;;3.92;;
71303;SDS011;59091;47.446;19.148;2024-01-27T20:48:28;11.02;;;4.03;;
71303;SDS011;59091;47.446;19.148;2024-01-27T20:50:54;14.32;;;4.70;;
71303;SDS011;59091;47.446;19.148;2024-01-27T20:53:19;15.65;;;4.70;;
71303;SDS011;59091;47.446;19.148;2024-01-27T20:55:45;20.20;;;5.60;;
71303;SDS011;59091;47.446;19.148;2024-01-27T20:58:11;8.27;;;3.35;;
71303;SDS011;59091;47.446;19.148;2024-01-27T21:00:36;8.15;;;3.78;;
71303;SDS011;59091;47.446;19.148;2024-01-27T21:03:03;10.75;;;3.30;;
71303;SDS011;59091;47.446;19.148;2024-01-27T21:05:28;7.82;;;3.50;;
71303;SDS011;59091;47.446;19.148;2024-01-27T21:07:54;11.75;;;2.95;;
71303;SDS011;59091;47.446;19.148;2024-01-27T21:10:19;8.35;;;2.90;;
71303;SDS011;59091;47.446;19.148;2024-01-27T21:12:45;10.35;;;3.10;;
71303;SDS011;59091;47.446;19.148;2024-01-27T21:15:12;7.57;;;2.92;;
71303;SDS011;59091;47.446;19.148;2024-01-27T21:17:41;6.72;;;2.95;;
71303;SDS011;59091;47.446;19.148;2024-01-27T21:20:08;6.78;;;3.05;;
71303;SDS011;59091;47.446;19.148;2024-01-27T21:22:36;10.13;;;2.75;;
71303;SDS011;59091;47.446;19.148;2024-01-27T21:25:02;6.13;;;2.67;;
71303;SDS011;59091;47.446;19.148;2024-01-27T21:27:27;8.73;;;2.72;;
71303;SDS011;59091;47.446;19.148;2024-01-27T21:29:53;7.78;;;2.83;;
71303;SDS011;59091;47.446;19.148;2024-01-27T21:32:18;4.25;;;2.50;;
71303;SDS011;59091;47.446;19.148;2024-01-27T21:34:45;6.57;;;3.10;;
71303;SDS011;59091;47.446;19.148;2024-01-27T21:37:10;8.88;;;2.83;;
71303;SDS011;59091;47.446;19.148;2024-01-27T21:39:36;6.85;;;2.90;;
71303;SDS011;59091;47.446;19.148;2024-01-27T21:42:01;8.40;;;2.72;;
71303;SDS011;59091;47.446;19.148;2024-01-27T21:44:28;10.60;;;3.00;;
71303;SDS011;59091;47.446;19.148;2024-01-27T21:46:53;8.20;;;3.20;;
71303;SDS011;59091;47.446;19.148;2024-01-27T21:49:19;6.80;;;2.65;;
71303;SDS011;59091;47.446;19.148;2024-01-27T21:51:48;9.35;;;2.90;;
71303;SDS011;59091;47.446;19.148;2024-01-27T21:54:15;6.13;;;2.95;;
71303;SDS011;59091;47.446;19.148;2024-01-27T21:56:41;9.13;;;3.40;;
71303;SDS011;59091;47.446;19.148;2024-01-27T21:59:07;6.70;;;2.63;;
71303;SDS011;59091;47.446;19.148;2024-01-27T22:01:32;8.55;;;2.45;;
71303;SDS011;59091;47.446;19.148;2024-01-27T22:03:58;6.80;;;2.83;;
71303;SDS011;59091;47.446;19.148;2024-01-27T22:06:24;12.30;;;3.00;;
71303;SDS011;59091;47.446;19.148;2024-01-27T22:08:50;7.97;;;3.40;;
71303;SDS011;59091;47.446;19.148;2024-01-27T22:11:15;9.70;;;3.25;;
71303;SDS011;59091;47.446;19.148;2024-01-27T22:13:41;8.85;;;2.88;;
71303;SDS011;59091;47.446;19.148;2024-01-27T22:16:06;4.80;;;2.53;;
71303;SDS011;59091;47.446;19.148;2024-01-27T22:18:31;8.15;;;3.28;;
71303;SDS011;59091;47.446;19.148;2024-01-27T22:20:58;13.27;;;3.08;;
71303;SDS011;59091;47.446;19.148;2024-01-27T22:23:24;12.60;;;3.33;;
71303;SDS011;59091;47.446;19.148;2024-01-27T22:25:49;9.15;;;3.10;;
71303;SDS011;59091;47.446;19.148;2024-01-27T22:28:15;7.03;;;3.08;;
71303;SDS011;59091;47.446;19.148;2024-01-27T22:30:41;7.43;;;2.70;;
71303;SDS011;59091;47.446;19.148;2024-01-27T22:33:08;7.15;;;2.78;;
71303;SDS011;59091;47.446;19.148;2024-01-27T22:35:36;9.38;;;2.85;;
71303;SDS011;59091;47.446;19.148;2024-01-27T22:38:04;10.13;;;2.65;;
71303;SDS011;59091;47.446;19.148;2024-01-27T22:40:30;10.10;;;2.70;;
71303;SDS011;59091;47.446;19.148;2024-01-27T22:42:56;5.88;;;3.10;;
71303;SDS011;59091;47.446;19.148;2024-01-27T22:45:21;11.60;;;2.97;;
71303;SDS011;59091;47.446;19.148;2024-01-27T22:47:46;8.82;;;3.17;;
71303;SDS011;59091;47.446;19.148;2024-01-27T22:50:12;13.00;;;2.90;;
71303;SDS011;59091;47.446;19.148;2024-01-27T22:52:38;10.93;;;3.15;;
71303;SDS011;59091;47.446;19.148;2024-01-27T22:55:04;12.70;;;3.05;;
71303;SDS011;59091;47.446;19.148;2024-01-27T22:57:30;9.95;;;3.42;;
71303;SDS011;59091;47.446;19.148;2024-01-27T22:59:56;9.15;;;2.97;;
71303;SDS011;59091;47.446;19.148;2024-01-27T23:02:22;7.68;;;3.00;;
71303;SDS011;59091;47.446;19.148;2024-01-27T23:04:47;7.15;;;2.40;;
71303;SDS011;59091;47.446;19.148;2024-01-27T23:07:13;8.95;;;3.20;;
71303;SDS011;59091;47.446;19.148;2024-01-27T23:09:39;16.33;;;3.20;;
71303;SDS011;59091;47.446;19.148;2024-01-27T23:12:05;7.13;;;2.40;;
71303;SDS011;59091;47.446;19.148;2024-01-27T23:14:32;9.65;;;3.13;;
71303;SDS011;59091;47.446;19.148;2024-01-27T23:16:57;12.32;;;2.90;;
71303;SDS011;59091;47.446;19.148;2024-01-27T23:19:23;9.45;;;3.03;;
71303;SDS011;59091;47.446;19.148;2024-01-27T23:21:48;11.13;;;3.10;;
71303;SDS011;59091;47.446;19.148;2024-01-27T23:24:14;9.57;;;2.90;;
71303;SDS011;59091;47.446;19.148;2024-01-27T23:26:39;11.70;;;2.83;;
71303;SDS011;59091;47.446;19.148;2024-01-27T23:29:04;9.75;;;2.85;;
71303;SDS011;59091;47.446;19.148;2024-01-27T23:31:31;8.85;;;3.08;;
71303;SDS011;59091;47.446;19.148;2024-01-27T23:33:56;5.80;;;2.67;;
71303;SDS011;59091;47.446;19.148;2024-01-27T23:36:22;11.07;;;3.20;;
71303;SDS011;59091;47.446;19.148;2024-01-27T23:38:47;6.70;;;2.80;;
71303;SDS011;59091;47.446;19.148;2024-01-27T23:41:13;7.85;;;2.90;;
71303;SDS011;59091;47.446;19.148;2024-01-27T23:43:38;9.65;;;2.90;;
71303;SDS011;59091;47.446;19.148;2024-01-27T23:46:03;13.85;;;3.30;;
71303;SDS011;59091;47.446;19.148;2024-01-27T23:48:29;12.52;;;3.05;;
71303;SDS011;59091;47.446;19.148;2024-01-27T23:50:55;10.38;;;2.70;;
71303;SDS011;59091;47.446;19.148;2024-01-27T23:53:21;10.10;;;3.47;;
71303;SDS011;59091;47.446;19.148;2024-01-27T23:55:47;11.70;;;3.22;;
71303;SDS011;59091;47.446;19.148;2024-01-27T23:58:16;8.70;;;2.63;;
